< < Back
Terminal Aerodrome Forecast


Current Version              Previous Versions:   1  2  3  4  5  6  7  8  9  

Terminal Aerodrome Forecast

642
FTUS42 KFFC 301611 AAA
TAFFTY
TAF AMD
KFTY 301611Z 3016/3112 13006KT P6SM BKN045
     FM301800 15006KT P6SM BKN050
     FM310100 00000KT P6SM FEW060
     FM310900 00000KT P6SM BKN012=

Latest METAR

630
SAUS70 KWBC 302200 RRA
MTRFTY
METAR KFTY 302153Z 13005KT 10SM SCT060 BKN095 29/16 A3007 RMK AO2 SLP175
T02890161


USA.gov is the U.S. government's official web portal to all federal, state and local government web resources and services.